Time;durP1;ratioP1;P1;durP2;ratioP2;P2;SDS_P1;SDS_P2;PMS_P1;PMS_P2;Temp;Humidity;BMP_temperature;BMP_pressure;BME280_temperature;BME280_humidity;BME280_pressure;Samples;Min_cycle;Max_cycle;Signal;HPM_P1;HPM_P2
2021/05/21 04:39:49;;;;;;;8.85;2.37;;;;;;;13.27;74.95;100207.50;1689736;83;20999;-53
2021/05/21 04:42:16;;;;;;;3.25;1.50;;;;;;;13.32;75.13;100209.84;1703502;82;21005;-49
2021/05/21 04:44:42;;;;;;;1.98;1.55;;;;;;;13.36;75.14;100214.02;1703587;83;21014;-47
2021/05/21 04:47:09;;;;;;;3.85;1.90;;;;;;;13.41;74.98;100222.06;1705549;82;21015;-47
2021/05/21 04:49:35;;;;;;;3.22;1.50;;;;;;;13.44;75.12;100216.97;1706114;82;20995;-50
2021/05/21 04:52:05;;;;;;;4.97;1.87;;;;;;;13.51;75.16;100221.39;1706388;82;21542;-52
2021/05/21 04:54:32;;;;;;;4.00;2.12;;;;;;;13.59;74.58;100230.55;1705099;82;21600;-46
2021/05/21 04:56:59;;;;;;;5.20;2.00;;;;;;;13.68;74.58;100236.17;1681534;83;21015;-47
2021/05/21 04:59:26;;;;;;;5.58;2.40;;;;;;;13.76;74.26;100238.66;1669035;84;21090;-49
2021/05/21 05:01:53;;;;;;;3.00;1.72;;;;;;;13.84;74.03;100239.42;1672138;84;21042;-52
2021/05/21 05:04:19;;;;;;;2.98;1.60;;;;;;;13.91;73.40;100243.35;1669295;84;21014;-53
2021/05/21 05:06:47;;;;;;;4.05;2.12;;;;;;;13.95;73.27;100235.92;1676278;84;21450;-47
2021/05/21 05:09:14;;;;;;;3.80;2.10;;;;;;;13.98;72.67;100237.02;1671998;84;20995;-51
2021/05/21 05:11:42;;;;;;;2.60;1.72;;;;;;;13.99;72.06;100235.57;1675087;84;21544;-49
2021/05/21 05:14:10;;;;;;;4.35;1.70;;;;;;;14.00;71.73;100245.31;1677039;84;21035;-52
2021/05/21 05:16:36;;;;;;;3.17;1.95;;;;;;;14.03;71.42;100247.75;1674357;84;21019;-51
2021/05/21 05:19:03;;;;;;;4.25;2.45;;;;;;;14.05;71.00;100247.15;1673178;84;21066;-46
2021/05/21 05:21:34;;;;;;;5.15;2.10;;;;;;;14.05;71.01;100244.47;1673423;84;21046;-45
2021/05/21 05:24:02;;;;;;;4.85;2.25;;;;;;;14.10;70.60;100245.46;1670512;85;20998;-52
2021/05/21 05:26:29;;;;;;;7.40;2.22;;;;;;;14.13;70.02;100243.03;1671978;84;21039;-46
2021/05/21 05:28:57;;;;;;;6.37;2.20;;;;;;;14.13;69.22;100243.87;1672528;84;21081;-43
2021/05/21 05:31:24;;;;;;;7.08;2.80;;;;;;;14.17;69.49;100244.52;1672273;84;21034;-45
2021/05/21 05:33:51;;;;;;;4.75;2.35;;;;;;;14.21;68.75;100245.97;1673958;84;21038;-49
2021/05/21 05:36:17;;;;;;;5.95;2.30;;;;;;;14.24;68.30;100251.12;1672384;84;20995;-48
2021/05/21 05:38:44;;;;;;;6.20;2.45;;;;;;;14.24;68.24;100247.09;1670992;84;21030;-44
2021/05/21 05:41:10;;;;;;;3.70;1.75;;;;;;;14.28;68.17;100252.56;1677512;83;21433;-45
2021/05/21 05:43:37;;;;;;;5.50;1.95;;;;;;;14.30;68.06;100245.27;1662145;85;21800;-44
2021/05/21 05:46:05;;;;;;;3.62;1.17;;;;;;;14.35;68.83;100249.78;1698169;83;21062;-45
2021/05/21 05:48:33;;;;;;;1.52;1.05;;;;;;;14.44;67.68;100250.91;1696450;82;21022;-47
2021/05/21 05:50:59;;;;;;;3.90;1.55;;;;;;;14.53;66.65;100249.32;1692138;83;21550;-45
2021/05/21 05:53:26;;;;;;;2.75;1.30;;;;;;;14.60;65.53;100246.56;1699404;83;21030;-44
2021/05/21 05:55:53;;;;;;;4.08;1.00;;;;;;;14.68;65.12;100236.06;1699608;83;21035;-43
2021/05/21 05:58:20;;;;;;;2.90;1.10;;;;;;;14.75;64.50;100239.12;1699233;83;20995;-46
2021/05/21 06:00:47;;;;;;;3.17;1.65;;;;;;;14.81;63.87;100241.31;1696833;83;21042;-43
2021/05/21 06:03:17;;;;;;;2.73;1.20;;;;;;;14.85;64.15;100250.34;1693349;82;21026;-45
2021/05/21 06:05:43;;;;;;;4.78;1.52;;;;;;;14.90;64.70;100240.58;1695802;83;21047;-50
2021/05/21 06:08:10;;;;;;;2.65;1.40;;;;;;;14.95;64.41;100240.22;1699173;83;21022;-50
2021/05/21 06:10:38;;;;;;;3.22;1.50;;;;;;;14.99;63.98;100243.00;1697654;83;21055;-49
2021/05/21 06:13:08;;;;;;;5.83;1.70;;;;;;;15.05;64.29;100241.18;1661571;84;21064;-48
2021/05/21 06:15:36;;;;;;;7.42;2.02;;;;;;;15.11;64.24;100240.67;1702610;83;21585;-48
2021/05/21 06:18:04;;;;;;;6.75;2.30;;;;;;;15.18;63.96;100241.03;1692275;83;21002;-45
2021/05/21 06:20:31;;;;;;;6.92;2.20;;;;;;;15.21;63.23;100241.63;1697727;83;21049;-48
2021/05/21 06:22:58;;;;;;;7.15;2.12;;;;;;;15.24;63.59;100244.55;1697256;83;21059;-47
2021/05/21 06:25:40;;;;;;;7.85;2.67;;;;;;;15.26;63.50;100238.56;1696824;84;22098;-49
2021/05/21 06:27:56;;;;;;;8.05;2.50;;;;;;;15.27;62.43;100241.61;1691877;83;21018;-44
2021/05/21 06:30:23;;;;;;;4.53;2.50;;;;;;;15.30;62.52;100248.09;1702118;83;21006;-46
2021/05/21 06:32:50;;;;;;;5.53;2.37;;;;;;;15.31;62.51;100241.23;1698958;83;21558;-46
2021/05/21 06:35:17;;;;;;;5.55;1.47;;;;;;;15.31;62.73;100241.73;1697456;82;21071;-42
2021/05/21 06:37:43;;;;;;;8.40;2.62;;;;;;;15.32;62.68;100242.08;1693517;83;21066;-46
2021/05/21 06:40:12;;;;;;;6.92;1.77;;;;;;;15.38;62.49;100242.09;1690274;83;21372;-48
2021/05/21 06:42:39;;;;;;;4.12;1.37;;;;;;;15.44;61.91;100248.28;1703905;82;21050;-49
2021/05/21 06:45:07;;;;;;;4.25;1.75;;;;;;;15.45;60.49;100240.61;1706200;82;21066;-48
2021/05/21 06:47:34;;;;;;;7.40;1.72;;;;;;;15.46;60.48;100241.81;1700105;82;21018;-46
2021/05/21 06:50:01;;;;;;;6.05;2.05;;;;;;;15.48;60.28;100234.48;1668348;84;21072;-47
2021/05/21 06:52:57;;;;;;;6.45;2.20;;;;;;;15.52;59.84;100236.41;1695240;82;21006;-49
2021/05/21 06:55:24;;;;;;;5.40;1.92;;;;;;;15.56;60.70;100241.41;1700150;83;21715;-45
2021/05/21 06:57:50;;;;;;;2.87;1.37;;;;;;;15.67;60.44;100245.88;1699858;82;21070;-46
2021/05/21 07:00:18;;;;;;;5.37;2.00;;;;;;;15.76;59.26;100246.50;1700697;82;21010;-46
2021/05/21 07:02:45;;;;;;;3.25;1.20;;;;;;;15.81;59.34;100254.67;1699308;82;20983;-49
2021/05/21 07:05:13;;;;;;;3.83;1.62;;;;;;;15.86;58.69;100255.99;1702937;82;21018;-49
2021/05/21 07:07:40;;;;;;;4.30;0.98;;;;;;;15.91;56.31;100251.58;1702258;82;21036;-47
2021/05/21 07:10:08;;;;;;;1.75;1.27;;;;;;;15.91;57.35;100251.08;1701054;82;21086;-47
2021/05/21 07:12:35;;;;;;;1.80;0.65;;;;;;;15.93;57.34;100255.84;1693893;82;21038;-48
2021/05/21 07:15:04;;;;;;;1.55;0.98;;;;;;;15.96;57.68;100261.45;1701667;82;21034;-48
2021/05/21 07:17:30;;;;;;;1.65;1.00;;;;;;;16.04;58.31;100260.30;1702835;82;21804;-47
2021/05/21 07:19:57;;;;;;;1.20;0.55;;;;;;;16.08;55.78;100267.14;1702208;82;21010;-48
2021/05/21 07:22:24;;;;;;;1.77;0.90;;;;;;;16.11;55.85;100271.41;1698529;82;21045;-45
2021/05/21 07:24:51;;;;;;;3.17;0.88;;;;;;;16.13;55.96;100264.91;1702950;83;21046;-44
2021/05/21 07:27:17;;;;;;;1.20;0.90;;;;;;;16.16;55.85;100270.02;1695721;82;20998;-44
2021/05/21 07:29:44;;;;;;;3.60;1.10;;;;;;;16.21;55.10;100268.29;1702941;82;21049;-44
2021/05/21 07:32:11;;;;;;;5.30;1.00;;;;;;;16.25;54.62;100271.05;1703217;82;21545;-43
2021/05/21 07:34:37;;;;;;;4.67;1.00;;;;;;;16.30;54.04;100266.13;1701387;82;21051;-43
2021/05/21 07:37:04;;;;;;;1.15;0.68;;;;;;;16.32;53.86;100278.13;1679614;82;21061;-43
2021/05/21 07:39:31;;;;;;;4.00;0.72;;;;;;;16.33;53.53;100271.75;1701262;82;21050;-47
2021/05/21 07:41:58;;;;;;;2.47;0.60;;;;;;;16.35;53.25;100275.16;1704261;82;21569;-47
2021/05/21 07:44:27;;;;;;;2.40;1.12;;;;;;;16.37;53.68;100275.89;1699942;82;21038;-49
2021/05/21 07:46:53;;;;;;;1.77;1.00;;;;;;;16.40;52.98;100281.88;1700930;82;21018;-46
2021/05/21 07:49:24;;;;;;;2.65;0.68;;;;;;;16.44;52.81;100285.14;1667774;84;21578;-47
2021/05/21 07:51:53;;;;;;;1.12;0.72;;;;;;;16.40;51.96;100285.04;1698767;82;21027;-52
2021/05/21 07:54:20;;;;;;;2.77;0.55;;;;;;;16.40;53.27;100289.08;1700985;82;21102;-46
2021/05/21 07:56:47;;;;;;;1.75;0.90;;;;;;;16.43;51.78;100288.84;1664913;84;21611;-44
2021/05/21 07:59:14;;;;;;;2.27;1.50;;;;;;;16.48;50.76;100293.33;1703497;82;21032;-44
2021/05/21 08:01:40;;;;;;;2.60;1.50;;;;;;;16.51;51.12;100293.05;1702384;82;21033;-45
2021/05/21 08:04:07;;;;;;;1.42;0.90;;;;;;;16.53;52.05;100288.40;1697235;82;21034;-48
2021/05/21 08:06:34;;;;;;;0.80;0.80;;;;;;;16.60;52.13;100288.70;1705413;82;21010;-43
2021/05/21 08:09:05;;;;;;;4.20;0.98;;;;;;;16.68;52.36;100290.72;1698609;82;21014;-42
2021/05/21 08:11:33;;;;;;;1.60;1.00;;;;;;;16.71;51.49;100288.64;1697232;82;21054;-45
2021/05/21 08:14:00;;;;;;;2.08;1.20;;;;;;;16.70;51.22;100286.91;1702525;82;21419;-43
2021/05/21 08:16:30;;;;;;;2.25;0.95;;;;;;;16.70;51.22;100279.34;1703027;82;21473;-44
2021/05/21 08:18:57;;;;;;;1.12;0.80;;;;;;;16.72;52.39;100284.09;1699452;82;21006;-47
2021/05/21 08:21:27;;;;;;;3.42;1.67;;;;;;;16.77;51.05;100287.23;1702871;82;21383;-43
2021/05/21 08:23:55;;;;;;;4.83;0.90;;;;;;;16.74;50.72;100288.36;1703339;82;21012;-41
2021/05/21 08:26:27;;;;;;;4.40;1.20;;;;;;;16.71;51.63;100285.09;1703611;82;21011;-44
2021/05/21 08:28:58;;;;;;;2.70;1.45;;;;;;;16.71;51.80;100285.95;1700808;82;20998;-43
2021/05/21 08:31:25;;;;;;;;;;;;;;;16.74;51.78;100292.90;1703288;82;20983;-46
2021/05/21 08:33:51;;;;;;;1.55;1.00;;;;;;;16.76;52.21;100286.89;1700593;82;20494;-46
2021/05/21 08:36:22;;;;;;;4.47;2.47;;;;;;;16.80;52.49;100287.00;1694713;84;21057;-50
2021/05/21 08:38:50;;;;;;;1.95;1.60;;;;;;;16.85;51.83;100284.75;1695930;82;21020;-48
2021/05/21 08:41:24;;;;;;;1.85;1.00;;;;;;;16.90;52.22;100281.16;1698672;82;21050;-50
2021/05/21 08:44:03;;;;;;;3.08;1.10;;;;;;;16.94;52.30;100285.30;1712191;82;21030;-46
2021/05/21 08:46:46;;;;;;;1.20;1.10;;;;;;;16.99;51.85;100280.36;1580407;88;22204;-48
2021/05/21 08:49:13;;;;;;;1.77;1.00;;;;;;;16.98;51.63;100285.87;1584517;88;21113;-47
2021/05/21 08:51:40;;;;;;;2.27;1.20;;;;;;;16.95;51.94;100293.73;1578501;89;21033;-47
2021/05/21 08:54:07;;;;;;;4.75;1.50;;;;;;;16.96;52.28;100287.84;1584995;88;21117;-47
2021/05/21 08:56:34;;;;;;;1.98;1.30;;;;;;;17.00;53.26;100291.48;1580291;89;21115;-46
2021/05/21 08:59:01;;;;;;;7.55;2.08;;;;;;;17.07;53.13;100293.14;1590049;88;21052;-47
2021/05/21 09:01:27;;;;;;;2.85;1.75;;;;;;;17.12;53.50;100292.24;1549467;90;21144;-46
2021/05/21 09:04:01;;;;;;;8.95;6.22;;;;;;;17.16;53.85;100290.99;1559147;90;21052;-45
2021/05/21 09:06:28;;;;;;;4.37;2.80;;;;;;;17.20;53.95;100296.95;1558240;90;21101;-48
2021/05/21 09:08:58;;;;;;;2.42;1.32;;;;;;;17.24;52.99;100299.23;1555442;90;21116;-47
2021/05/21 09:11:36;;;;;;;3.02;1.02;;;;;;;17.28;53.68;100288.52;1560818;90;21125;-45
2021/05/21 09:14:15;;;;;;;2.25;1.30;;;;;;;17.35;53.13;100296.92;1554139;90;21085;-47
2021/05/21 09:16:43;;;;;;;2.08;1.10;;;;;;;17.39;51.43;100294.31;1571272;89;21561;-54
2021/05/21 09:19:15;;;;;;;2.37;1.20;;;;;;;17.40;50.12;100297.36;1573231;89;21192;-44
2021/05/21 09:22:06;;;;;;;2.30;1.07;;;;;;;17.40;50.41;100297.36;1577860;89;21097;-51
2021/05/21 09:24:40;;;;;;;3.50;1.30;;;;;;;17.42;49.25;100294.53;1611584;86;21058;-51
2021/05/21 09:27:07;;;;;;;1.22;1.10;;;;;;;17.44;50.87;100288.52;1613834;86;21041;-48
2021/05/21 09:29:45;;;;;;;4.33;1.30;;;;;;;17.50;50.76;100297.38;1655836;82;21000;-46
2021/05/21 09:32:30;;;;;;;2.05;1.30;;;;;;;17.55;50.57;100297.81;1705527;82;21006;-48
2021/05/21 09:35:10;;;;;;;1.47;0.82;;;;;;;17.61;50.09;100293.20;1700535;82;21007;-48
2021/05/21 09:37:36;;;;;;;2.27;1.20;;;;;;;17.68;50.34;100290.81;1701575;84;21062;-47
2021/05/21 09:40:19;;;;;;;4.80;1.15;;;;;;;17.71;48.44;100285.13;1651055;85;21031;-46
2021/05/21 09:43:06;;;;;;;4.97;2.27;;;;;;;17.70;48.34;100291.03;1668909;85;21074;-44
2021/05/21 09:45:39;;;;;;;1.95;1.07;;;;;;;17.70;49.22;100291.53;1646573;85;21057;-44
2021/05/21 09:48:07;;;;;;;1.98;1.22;;;;;;;17.67;48.80;100295.36;1646764;85;21104;-47
2021/05/21 09:50:47;;;;;;;2.58;1.00;;;;;;;17.61;47.16;100286.97;1698664;83;21012;-53
2021/05/21 09:53:22;;;;;;;1.20;0.93;;;;;;;17.55;47.10;100288.38;1664219;84;21093;-52
2021/05/21 09:55:55;;;;;;;1.02;0.80;;;;;;;17.52;47.70;100290.86;1696293;83;21090;-57
2021/05/21 09:58:40;;;;;;;1.12;0.50;;;;;;;17.57;46.44;100279.67;1693887;83;21019;-47
2021/05/21 10:01:15;;;;;;;0.98;0.70;;;;;;;17.66;46.50;100286.89;1675169;84;21626;-46
2021/05/21 10:03:54;;;;;;;1.00;0.75;;;;;;;17.77;46.67;100288.63;1695748;83;20995;-49
2021/05/21 10:06:26;;;;;;;2.83;0.95;;;;;;;17.88;46.54;100283.63;1698792;83;21038;-50
2021/05/21 10:08:56;;;;;;;0.78;0.60;;;;;;;17.94;45.96;100279.88;1698154;83;21022;-48
2021/05/21 10:11:22;;;;;;;2.30;0.60;;;;;;;17.99;45.37;100286.67;1696187;83;21034;-47
2021/05/21 10:13:49;;;;;;;1.27;0.98;;;;;;;17.99;45.72;100279.92;1696374;84;21007;-52
2021/05/21 10:16:18;;;;;;;1.37;0.85;;;;;;;18.01;45.19;100280.64;1699169;83;21026;-49
2021/05/21 10:18:47;;;;;;;2.92;0.65;;;;;;;18.06;45.61;100279.21;1697121;83;21050;-44
2021/05/21 10:21:14;;;;;;;0.53;0.53;;;;;;;18.12;45.25;100286.75;1697013;83;21011;-47
2021/05/21 10:24:02;;;;;;;0.60;0.50;;;;;;;18.12;44.95;100289.95;1696213;83;21021;-49
2021/05/21 10:26:34;;;;;;;1.00;0.70;;;;;;;18.11;43.01;100282.33;1695279;83;20995;-45
2021/05/21 10:29:07;;;;;;;1.50;0.60;;;;;;;18.13;41.74;100277.66;1700639;83;21070;-46
2021/05/21 10:31:35;;;;;;;1.12;0.60;;;;;;;18.16;42.82;100273.81;1698694;82;21046;-48
2021/05/21 10:34:18;;;;;;;3.22;0.80;;;;;;;18.22;44.69;100290.80;1701939;82;21100;-44
2021/05/21 10:37:28;;;;;;;0.90;0.68;;;;;;;18.25;43.33;100286.96;1694046;83;21042;-42
2021/05/21 10:40:27;;;;;;;1.20;0.70;;;;;;;18.21;44.18;100286.38;1699632;82;21405;-44
2021/05/21 10:43:16;;;;;;;1.90;0.65;;;;;;;18.15;43.78;100289.16;1682856;84;21049;-48
2021/05/21 10:45:54;;;;;;;0.98;0.72;;;;;;;18.08;43.98;100283.97;1665275;84;21560;-46
2021/05/21 10:48:28;;;;;;;2.25;0.57;;;;;;;18.06;43.99;100278.37;1672788;84;21071;-47
2021/05/21 10:51:10;;;;;;;2.12;0.60;;;;;;;18.09;44.17;100271.33;1673355;84;21003;-46
2021/05/21 10:53:43;;;;;;;2.85;0.50;;;;;;;18.15;44.52;100266.22;1640523;86;21018;-46
2021/05/21 10:56:10;;;;;;;2.10;0.47;;;;;;;18.24;40.07;100267.19;1658010;85;21576;-46
2021/05/21 10:58:44;;;;;;;2.60;0.90;;;;;;;18.32;40.52;100271.39;1669556;84;21018;-47
2021/05/21 11:01:17;;;;;;;2.37;0.72;;;;;;;18.38;40.67;100273.50;1680212;84;21006;-44
2021/05/21 11:04:09;;;;;;;1.15;0.60;;;;;;;18.41;38.72;100276.41;1682629;84;21058;-46
2021/05/21 11:06:49;;;;;;;1.42;0.60;;;;;;;18.37;36.45;100275.02;1664560;84;21006;-47
2021/05/21 11:09:21;;;;;;;2.17;0.50;;;;;;;18.32;35.90;100277.27;1640385;86;21346;-45
2021/05/21 11:11:55;;;;;;;1.62;0.50;;;;;;;18.29;36.21;100274.36;1669168;84;21724;-46
2021/05/21 11:14:29;;;;;;;0.95;0.50;;;;;;;18.32;36.28;100272.74;1676334;84;20980;-45
2021/05/21 11:17:18;;;;;;;2.27;0.60;;;;;;;18.40;35.55;100274.72;1639353;85;21050;-46
2021/05/21 11:19:58;;;;;;;1.10;0.70;;;;;;;18.50;36.30;100272.00;1678191;84;21104;-42
2021/05/21 11:22:36;;;;;;;2.72;0.80;;;;;;;18.59;36.08;100268.41;1641784;85;21049;-45
2021/05/21 11:25:10;;;;;;;0.82;0.57;;;;;;;18.66;36.50;100266.83;1639288;85;21533;-51
2021/05/21 11:27:37;;;;;;;1.37;0.60;;;;;;;18.67;36.67;100273.06;1673810;84;21032;-43
2021/05/21 11:30:08;;;;;;;2.55;0.78;;;;;;;18.66;38.12;100272.22;1687315;84;21006;-43
2021/05/21 11:32:40;;;;;;;0.90;0.50;;;;;;;18.59;38.16;100265.20;1674854;83;21069;-45
2021/05/21 11:35:10;;;;;;;1.85;0.50;;;;;;;18.59;39.43;100268.41;1677267;84;21074;-44
2021/05/21 11:37:39;;;;;;;1.62;0.65;;;;;;;18.66;39.58;100273.58;1669922;84;21058;-45
2021/05/21 11:40:07;;;;;;;2.15;0.72;;;;;;;18.76;38.94;100275.77;1675363;84;21329;-51
2021/05/21 11:42:38;;;;;;;1.95;1.25;;;;;;;18.86;38.26;100274.39;1655732;84;21084;-47
2021/05/21 11:45:06;;;;;;;3.65;0.70;;;;;;;18.95;37.92;100281.62;1708828;82;21031;-49
2021/05/21 11:47:37;;;;;;;2.30;0.57;;;;;;;18.98;37.41;100285.88;1713940;82;21389;-48
2021/05/21 11:50:07;;;;;;;1.07;0.62;;;;;;;18.93;36.85;100284.96;1711476;82;21566;-49
2021/05/21 11:52:34;;;;;;;1.65;0.47;;;;;;;18.86;36.66;100277.59;1715480;82;21074;-48
2021/05/21 11:55:03;;;;;;;1.40;0.60;;;;;;;18.85;37.21;100278.58;1713488;82;21042;-48
2021/05/21 11:57:30;;;;;;;2.00;0.70;;;;;;;18.87;36.81;100281.98;1707869;82;21001;-46
2021/05/21 11:59:56;;;;;;;0.72;0.47;;;;;;;18.91;36.58;100280.20;1711658;82;21002;-46
2021/05/21 12:02:23;;;;;;;1.40;0.60;;;;;;;18.97;36.51;100276.89;1713183;83;21360;-47
2021/05/21 12:04:52;;;;;;;1.05;0.60;;;;;;;19.03;36.77;100275.47;1674061;84;21024;-47
2021/05/21 12:07:25;;;;;;;2.20;0.50;;;;;;;19.08;37.00;100273.17;1714046;82;21030;-46
2021/05/21 12:10:03;;;;;;;3.85;0.70;;;;;;;19.15;37.02;100280.16;1712119;82;20986;-48
2021/05/21 12:12:31;;;;;;;2.00;0.80;;;;;;;19.20;36.91;100285.48;1709708;82;21018;-41
2021/05/21 12:15:13;;;;;;;1.90;0.60;;;;;;;19.21;36.92;100278.22;1708612;82;21529;-47
2021/05/21 12:17:44;;;;;;;2.87;0.55;;;;;;;19.23;37.08;100278.93;1713904;82;20994;-47
2021/05/21 12:20:12;;;;;;;0.70;0.53;;;;;;;19.24;38.39;100281.46;1715771;82;21010;-45
2021/05/21 12:22:38;;;;;;;1.15;0.62;;;;;;;19.30;36.96;100286.76;1714110;82;21572;-46
2021/05/21 12:25:17;;;;;;;0.80;0.65;;;;;;;19.24;35.88;100277.41;1686167;83;21022;-41
2021/05/21 12:27:44;;;;;;;2.02;1.00;;;;;;;19.24;36.38;100278.77;1698700;82;21057;-43
2021/05/21 12:30:12;;;;;;;2.83;0.72;;;;;;;19.23;36.37;100278.93;1703425;82;21013;-42
2021/05/21 12:32:39;;;;;;;1.15;0.80;;;;;;;19.18;36.63;100285.29;1711519;82;21049;-42
2021/05/21 12:35:10;;;;;;;1.20;0.78;;;;;;;19.13;36.95;100284.37;1711258;82;21010;-46
2021/05/21 12:37:46;;;;;;;1.90;0.70;;;;;;;19.10;37.42;100275.23;1709593;82;21018;-44
2021/05/21 12:40:13;;;;;;;1.32;0.70;;;;;;;19.08;37.51;100279.92;1711137;82;21607;-46
2021/05/21 12:42:51;;;;;;;2.80;1.00;;;;;;;19.02;37.59;100284.08;1713094;82;21548;-45
2021/05/21 12:45:19;;;;;;;1.00;0.65;;;;;;;19.03;37.85;100280.36;1703456;82;21014;-44
2021/05/21 12:47:48;;;;;;;1.05;0.57;;;;;;;19.06;35.73;100273.81;1697546;82;21030;-41
2021/05/21 12:50:17;;;;;;;2.40;0.80;;;;;;;19.08;35.63;100273.17;1700017;82;21058;-40
2021/05/21 12:52:57;;;;;;;3.10;1.15;;;;;;;19.08;34.88;100270.97;1698411;82;21007;-40
2021/05/21 12:55:27;;;;;;;0.42;0.40;;;;;;;19.10;34.82;100273.00;1698341;82;21066;-42
2021/05/21 12:57:57;;;;;;;1.50;0.70;;;;;;;19.17;34.34;100266.00;1695264;83;21050;-40
2021/05/21 13:00:25;;;;;;;0.65;0.60;;;;;;;19.26;33.27;100276.42;1698605;82;21001;-41
2021/05/21 13:02:54;;;;;;;1.17;0.53;;;;;;;19.28;33.67;100270.34;1681134;84;21023;-44
2021/05/21 13:05:26;;;;;;;0.68;0.47;;;;;;;19.31;33.82;100266.02;1692354;83;21082;-43
2021/05/21 13:07:57;;;;;;;1.80;0.88;;;;;;;19.37;34.51;100259.98;1692598;82;21023;-45
2021/05/21 13:10:26;;;;;;;4.03;1.00;;;;;;;19.46;34.76;100263.14;1691899;83;20998;-46
2021/05/21 13:12:55;;;;;;;1.77;0.80;;;;;;;19.53;34.02;100257.47;1662748;84;21595;-46
2021/05/21 13:15:27;;;;;;;1.07;0.70;;;;;;;19.58;35.03;100259.22;1698986;82;21530;-44
2021/05/21 13:17:58;;;;;;;2.30;1.20;;;;;;;19.64;34.56;100257.23;1700494;82;20991;-41
2021/05/21 13:20:32;;;;;;;0.55;0.42;;;;;;;19.69;34.15;100262.22;1696708;84;21002;-45
2021/05/21 13:23:01;;;;;;;1.47;0.50;;;;;;;19.73;32.93;100258.22;1696918;82;21031;-44
2021/05/21 13:25:30;;;;;;;1.50;0.50;;;;;;;19.82;32.43;100259.13;1701107;82;20975;-46
2021/05/21 13:28:02;;;;;;;0.78;0.50;;;;;;;19.89;32.55;100254.30;1698843;82;21042;-44
2021/05/21 13:30:30;;;;;;;3.02;0.50;;;;;;;19.99;32.61;100265.05;1699741;82;21019;-43
2021/05/21 13:32:57;;;;;;;0.70;0.60;;;;;;;20.05;31.03;100260.86;1701771;82;20995;-44
2021/05/21 13:35:24;;;;;;;3.70;0.85;;;;;;;20.07;30.23;100263.75;1700144;82;21361;-43
2021/05/21 13:37:51;;;;;;;0.82;0.62;;;;;;;20.10;29.39;100261.23;1701479;82;20999;-44
2021/05/21 13:40:17;;;;;;;1.00;0.57;;;;;;;20.07;29.89;100263.75;1699923;82;21038;-46
2021/05/21 13:42:44;;;;;;;1.02;0.68;;;;;;;20.05;30.52;100263.05;1703116;82;21498;-44
2021/05/21 13:45:11;;;;;;;1.12;0.80;;;;;;;20.07;31.50;100264.26;1703576;82;21033;-44
2021/05/21 13:47:38;;;;;;;3.15;0.80;;;;;;;20.13;30.34;100265.48;1659257;83;21016;-45
2021/05/21 13:50:06;;;;;;;0.40;0.40;;;;;;;20.19;30.70;100273.00;1663072;84;21050;-44
2021/05/21 13:52:32;;;;;;;0.62;0.47;;;;;;;20.24;28.98;100257.13;1664874;83;21417;-48
2021/05/21 13:55:00;;;;;;;1.37;0.72;;;;;;;20.26;28.71;100264.56;1672359;83;21195;-45
2021/05/21 13:57:26;;;;;;;0.82;0.60;;;;;;;20.23;27.67;100266.23;1654530;85;21925;-46
2021/05/21 13:59:54;;;;;;;1.22;0.30;;;;;;;20.20;27.18;100261.15;1645824;85;21028;-43
2021/05/21 14:02:21;;;;;;;0.88;0.30;;;;;;;20.21;27.30;100252.88;1651718;86;21039;-43
2021/05/21 14:04:47;;;;;;;0.47;0.35;;;;;;;20.27;28.84;100254.95;1653822;86;21567;-45
2021/05/21 14:07:14;;;;;;;0.70;0.70;;;;;;;20.36;29.43;100252.29;1654480;85;21009;-48
2021/05/21 14:09:41;;;;;;;0.55;0.37;;;;;;;20.56;29.83;100255.16;1652018;85;21075;-42
2021/05/21 14:12:10;;;;;;;0.57;0.57;;;;;;;20.74;28.78;100249.20;1661305;85;21044;-40
2021/05/21 14:14:37;;;;;;;1.03;0.50;;;;;;;20.77;28.94;100252.60;1667647;85;21041;-44
2021/05/21 14:17:03;;;;;;;1.80;0.62;;;;;;;21.10;29.63;100258.50;1665762;85;22228;-46
2021/05/21 14:19:31;;;;;;;0.75;0.33;;;;;;;21.41;28.69;100247.63;1668371;83;21052;-43
2021/05/21 14:21:59;;;;;;;2.47;0.50;;;;;;;21.99;28.78;100243.97;1656351;85;21447;-45
2021/05/21 14:24:26;;;;;;;0.55;0.33;;;;;;;22.24;27.95;100242.12;1657232;85;21012;-44
2021/05/21 14:26:53;;;;;;;1.85;0.57;;;;;;;22.46;27.84;100248.22;1666256;84;20999;-43
2021/05/21 14:29:19;;;;;;;1.47;0.40;;;;;;;22.45;27.52;100241.09;1669995;85;21074;-42
2021/05/21 14:31:48;;;;;;;0.65;0.40;;;;;;;22.56;28.03;100241.23;1649830;84;21032;-39
2021/05/21 14:34:23;;;;;;;2.30;0.53;;;;;;;22.37;27.97;100245.67;1664221;84;21043;-40
2021/05/21 14:36:52;;;;;;;3.55;0.50;;;;;;;22.20;27.85;100234.84;1659570;85;21558;-43
2021/05/21 14:39:20;;;;;;;2.58;0.70;;;;;;;21.95;28.65;100239.41;1658370;84;21017;-43
2021/05/21 14:41:47;;;;;;;0.78;0.60;;;;;;;21.72;28.00;100243.77;1658013;84;21026;-44
2021/05/21 14:44:15;;;;;;;1.12;0.40;;;;;;;21.51;28.53;100238.83;1660332;84;20996;-46
2021/05/21 14:46:43;;;;;;;1.55;0.40;;;;;;;21.48;28.86;100232.39;1678719;83;21908;-44
2021/05/21 14:49:11;;;;;;;1.00;0.53;;;;;;;21.48;28.30;100226.97;1712312;82;21041;-48
2021/05/21 14:51:39;;;;;;;0.57;0.40;;;;;;;21.37;28.01;100230.30;1707651;82;21048;-48
2021/05/21 14:54:06;;;;;;;3.45;0.68;;;;;;;21.21;27.89;100226.69;1664308;84;21694;-45
2021/05/21 14:56:33;;;;;;;0.95;0.40;;;;;;;21.07;29.04;100236.31;1711176;82;21059;-47
2021/05/21 14:59:02;;;;;;;2.47;0.42;;;;;;;20.92;29.40;100236.08;1700980;82;21035;-44
2021/05/21 15:01:29;;;;;;;1.40;0.60;;;;;;;20.84;29.76;100242.31;1703506;82;21082;-47
2021/05/21 15:03:56;;;;;;;0.60;0.40;;;;;;;20.81;29.70;100239.05;1701000;82;21037;-48
2021/05/21 15:06:24;;;;;;;1.55;0.70;;;;;;;20.79;29.64;100237.88;1667130;84;21060;-44
2021/05/21 15:08:56;;;;;;;1.77;0.37;;;;;;;20.81;30.47;100244.47;1669057;84;21047;-45
2021/05/21 15:11:28;;;;;;;0.30;0.30;;;;;;;20.80;29.73;100249.56;1703292;82;21070;-45
2021/05/21 15:13:53;;;;;;;2.00;0.60;;;;;;;20.77;29.60;100249.89;1706905;82;21580;-45
2021/05/21 15:24:27;;;;;;;1.50;0.80;;;;;;;20.48;29.87;100243.74;1668847;84;21044;-46
2021/05/21 15:26:52;;;;;;;2.15;0.62;;;;;;;20.41;30.25;100254.89;1669283;84;21125;-46
2021/05/21 15:29:20;;;;;;;1.17;0.60;;;;;;;20.37;30.77;100254.01;1680820;84;21513;-47
2021/05/21 15:31:48;;;;;;;1.32;0.88;;;;;;;20.38;31.64;100252.98;1672350;84;21054;-45
2021/05/21 15:34:24;;;;;;;3.22;0.75;;;;;;;20.41;31.79;100252.66;1672200;84;21080;-46
2021/05/21 15:36:46;;;;;;;1.25;0.57;;;;;;;20.44;31.71;100247.80;1669922;84;21048;-47
2021/05/21 15:39:13;;;;;;;1.72;0.70;;;;;;;20.48;31.87;100246.45;1703274;82;21054;-45
2021/05/21 15:41:46;;;;;;;1.62;0.68;;;;;;;20.49;30.47;100244.11;1704904;82;21014;-45
2021/05/21 15:46:54;;;;;;;2.35;1.85;;;;;;;20.47;30.41;100246.12;1707049;82;21536;-46
2021/05/21 15:52:10;;;;;;;0.85;0.40;;;;;;;20.43;30.51;100254.71;1695029;84;21022;-43
2021/05/21 15:54:39;;;;;;;0.55;0.40;;;;;;;20.34;30.72;100257.88;1699290;82;21106;-43
2021/05/21 15:59:38;;;;;;;2.83;1.07;;;;;;;20.29;31.67;100257.51;1701833;84;21007;-44
2021/05/21 16:02:06;;;;;;;2.33;0.37;;;;;;;20.38;31.55;100250.28;1698566;82;21497;-44
2021/05/21 16:04:32;;;;;;;1.00;0.55;;;;;;;20.42;31.28;100259.28;1699619;82;21010;-43
2021/05/21 16:06:59;;;;;;;2.60;0.80;;;;;;;20.44;31.45;100253.73;1700097;82;21015;-43
2021/05/21 16:09:28;;;;;;;1.10;0.35;;;;;;;20.40;31.56;100259.94;1700858;83;21080;-43
2021/05/21 16:11:56;;;;;;;1.00;0.45;;;;;;;20.31;31.13;100259.05;1703444;82;20986;-41
2021/05/21 16:14:27;;;;;;;0.50;0.50;;;;;;;20.20;31.65;100263.34;1701647;82;21453;-40
2021/05/21 16:16:55;;;;;;;0.42;0.33;;;;;;;20.12;32.04;100267.86;1700731;82;21493;-41
2021/05/21 16:19:22;;;;;;;1.65;0.57;;;;;;;20.05;32.88;100267.11;1668340;84;21157;-40
2021/05/21 16:21:48;;;;;;;1.77;0.55;;;;;;;20.01;32.66;100272.51;1701610;82;20998;-44
2021/05/21 16:24:18;;;;;;;1.22;0.50;;;;;;;19.98;32.95;100272.83;1699701;82;21066;-44
2021/05/21 16:26:44;;;;;;;0.75;0.50;;;;;;;19.99;32.88;100276.38;1701285;82;21030;-43
2021/05/21 16:29:11;;;;;;;1.85;0.80;;;;;;;19.99;32.88;100272.31;1699446;82;21026;-43
2021/05/21 16:31:38;;;;;;;1.35;0.50;;;;;;;19.97;32.81;100271.11;1699766;82;21070;-44